createdAt,value
2019-06-27T00:00:20.034Z,13.93
2019-06-27T00:03:28.045Z,17.37
2019-06-27T00:06:36.781Z,13.87
2019-06-27T00:09:44.599Z,19.47
2019-06-27T00:12:52.351Z,15.63
2019-06-27T00:16:00.690Z,11.60
2019-06-27T00:19:08.509Z,14.53
2019-06-27T00:22:16.468Z,12.83
2019-06-27T00:25:24.160Z,8.23
2019-06-27T00:28:32.237Z,13.13
2019-06-27T00:31:40.044Z,19.23
2019-06-27T00:34:47.700Z,8.87
2019-06-27T00:37:55.468Z,15.47
2019-06-27T00:41:03.285Z,10.70
2019-06-27T00:44:11.181Z,14.13
2019-06-27T00:47:18.923Z,13.37
2019-06-27T00:50:27.076Z,10.27
2019-06-27T00:53:35.107Z,12.47
2019-06-27T00:56:42.840Z,12.23
2019-06-27T00:59:50.797Z,10.70
2019-06-27T01:02:58.964Z,16.67
2019-06-27T01:06:07.073Z,13.70
2019-06-27T01:09:14.942Z,12.27
2019-06-27T01:12:23.013Z,14.63
2019-06-27T01:15:30.882Z,23.43
2019-06-27T01:18:39.003Z,10.03
2019-06-27T01:21:47.155Z,10.20
2019-06-27T01:24:56.195Z,14.30
2019-06-27T01:28:04.070Z,13.10
2019-06-27T01:31:12.839Z,11.80
2019-06-27T01:34:20.745Z,12.83
2019-06-27T01:37:28.461Z,13.13
2019-06-27T01:40:37.257Z,12.80
2019-06-27T01:43:44.911Z,12.30
2019-06-27T01:46:52.579Z,11.30
2019-06-27T01:50:00.328Z,18.73
2019-06-27T01:53:08.313Z,15.67
2019-06-27T01:56:16.390Z,17.90
2019-06-27T01:59:24.043Z,10.93
2019-06-27T02:02:31.766Z,15.13
2019-06-27T02:05:39.576Z,13.10
2019-06-27T02:08:47.220Z,11.83
2019-06-27T02:11:55.098Z,18.33
2019-06-27T02:15:02.922Z,11.00
2019-06-27T02:18:10.713Z,16.87
2019-06-27T02:21:18.789Z,17.00
2019-06-27T02:24:26.567Z,15.67
2019-06-27T02:27:34.366Z,11.23
2019-06-27T02:30:45.051Z,16.97
2019-06-27T02:33:52.833Z,15.00
2019-06-27T02:37:00.773Z,11.40
2019-06-27T02:40:09.786Z,13.43
2019-06-27T02:43:17.756Z,18.93
2019-06-27T02:46:25.885Z,14.37
2019-06-27T02:49:33.966Z,13.87
2019-06-27T02:52:42.274Z,20.77
2019-06-27T02:55:50.284Z,13.57
2019-06-27T02:58:58.270Z,13.27
2019-06-27T03:02:06.324Z,18.10
2019-06-27T03:05:14.637Z,15.63
2019-06-27T03:08:22.617Z,15.17
2019-06-27T03:11:30.660Z,13.80
2019-06-27T03:14:39.603Z,19.60
2019-06-27T03:17:48.585Z,18.60
2019-06-27T03:20:56.693Z,17.20
2019-06-27T03:24:04.832Z,17.50
2019-06-27T03:27:12.543Z,19.47
2019-06-27T03:30:20.827Z,12.33
2019-06-27T03:33:28.668Z,14.83
2019-06-27T03:36:36.449Z,13.77
2019-06-27T03:39:45.048Z,14.17
2019-06-27T03:42:52.921Z,16.03
2019-06-27T03:46:00.688Z,14.53
2019-06-27T03:49:08.528Z,11.37
2019-06-27T03:52:16.731Z,17.37
2019-06-27T03:55:24.647Z,15.57
2019-06-27T03:58:32.925Z,18.20
2019-06-27T04:01:40.918Z,15.93
2019-06-27T04:04:48.937Z,14.27
2019-06-27T04:07:57.007Z,13.80
2019-06-27T04:11:05.097Z,18.93
2019-06-27T04:14:13.182Z,16.47
2019-06-27T04:17:21.175Z,24.00
2019-06-27T04:20:29.091Z,17.73
2019-06-27T04:23:38.213Z,13.50
2019-06-27T04:26:46.228Z,12.40
2019-06-27T04:29:54.323Z,15.00
2019-06-27T04:33:02.226Z,12.17
2019-06-27T04:36:10.216Z,13.47
2019-06-27T04:39:18.340Z,19.10
2019-06-27T04:42:26.377Z,18.83
2019-06-27T04:45:34.383Z,17.23
2019-06-27T04:48:42.839Z,13.43
2019-06-27T04:51:50.811Z,11.80
2019-06-27T04:55:03.024Z,15.50
2019-06-27T04:58:09.258Z,22.57
2019-06-27T05:01:17.233Z,20.07
2019-06-27T05:04:25.678Z,20.87
2019-06-27T05:07:33.657Z,12.50
2019-06-27T05:10:41.676Z,19.13
2019-06-27T05:13:49.698Z,17.00
2019-06-27T05:16:59.542Z,16.00
2019-06-27T05:20:07.660Z,13.87
2019-06-27T05:23:15.761Z,14.47
2019-06-27T05:26:23.820Z,18.23
2019-06-27T05:29:33.222Z,14.67
2019-06-27T05:32:41.218Z,19.37
2019-06-27T05:35:49.508Z,14.57
2019-06-27T05:38:57.592Z,21.17
2019-06-27T05:42:06.761Z,18.67
2019-06-27T05:45:15.051Z,18.77
2019-06-27T05:48:23.310Z,18.43
2019-06-27T05:51:32.979Z,17.90
2019-06-27T05:54:42.800Z,18.67
2019-06-27T05:57:50.869Z,22.57
2019-06-27T06:00:58.923Z,20.00
2019-06-27T06:04:06.770Z,17.93
2019-06-27T06:07:14.411Z,23.57
2019-06-27T06:10:22.570Z,17.27
2019-06-27T06:13:30.272Z,17.43
2019-06-27T06:16:38.163Z,20.83
2019-06-27T06:19:46.144Z,23.77
2019-06-27T06:22:53.973Z,26.30
2019-06-27T06:26:02.106Z,26.63
2019-06-27T06:29:10.180Z,25.43
2019-06-27T06:32:18.276Z,23.73
2019-06-27T06:35:26.087Z,20.60
2019-06-27T06:38:33.747Z,21.83
2019-06-27T06:41:41.787Z,21.17
2019-06-27T06:44:49.608Z,19.30
2019-06-27T06:47:57.449Z,19.63
2019-06-27T06:51:05.607Z,15.83
2019-06-27T06:54:13.376Z,17.60
2019-06-27T06:57:22.229Z,13.87
2019-06-27T07:00:30.054Z,16.13
2019-06-27T07:03:39.968Z,25.27
2019-06-27T07:06:47.920Z,16.73
2019-06-27T07:09:55.909Z,17.17
2019-06-27T07:13:03.740Z,13.03
2019-06-27T07:16:13.268Z,16.47
2019-06-27T07:19:21.099Z,16.67
2019-06-27T07:22:29.473Z,30.67
2019-06-27T07:25:37.191Z,15.43
2019-06-27T07:28:45.377Z,13.13
2019-06-27T07:31:53.456Z,10.40
2019-06-27T07:35:07.372Z,16.07
2019-06-27T07:38:16.173Z,18.53
2019-06-27T07:41:23.972Z,13.60
2019-06-27T07:44:32.625Z,11.27
2019-06-27T07:47:40.912Z,9.97
2019-06-27T07:50:49.267Z,13.73
2019-06-27T07:53:58.311Z,14.90
2019-06-27T07:57:06.141Z,15.87
2019-06-27T08:00:16.399Z,10.77
2019-06-27T08:03:24.142Z,13.90
2019-06-27T08:06:32.416Z,13.33
2019-06-27T08:09:40.370Z,11.90
2019-06-27T08:12:48.289Z,11.97
2019-06-27T08:15:55.966Z,15.47
2019-06-27T08:19:03.707Z,14.53
2019-06-27T08:22:11.456Z,16.40
2019-06-27T08:25:19.338Z,19.03
2019-06-27T08:28:27.178Z,9.80
2019-06-27T08:31:50.294Z,12.87
2019-06-27T08:34:45.787Z,15.40
2019-06-27T08:37:53.565Z,15.70
2019-06-27T08:41:01.576Z,12.93
2019-06-27T08:44:10.383Z,9.60
2019-06-27T08:47:18.098Z,11.47
2019-06-27T08:50:26.424Z,12.80
2019-06-27T08:53:34.319Z,13.83
2019-06-27T08:56:42.014Z,11.87
2019-06-27T08:59:49.679Z,10.53
2019-06-27T09:02:57.630Z,11.67
2019-06-27T09:06:05.625Z,13.37
2019-06-27T09:09:13.962Z,10.40
2019-06-27T09:12:22.125Z,12.23
2019-06-27T09:15:30.294Z,11.37
2019-06-27T09:18:38.156Z,19.60
2019-06-27T09:21:45.895Z,12.00
2019-06-27T09:24:53.671Z,13.73
2019-06-27T09:28:03.236Z,10.83
2019-06-27T09:31:11.082Z,9.47
2019-06-27T09:34:21.359Z,8.83
2019-06-27T09:37:28.817Z,12.37
2019-06-27T09:40:36.817Z,8.90
2019-06-27T09:43:44.592Z,17.47
2019-06-27T09:46:52.442Z,9.40
2019-06-27T09:50:00.314Z,11.37
2019-06-27T09:53:08.387Z,12.30
2019-06-27T09:56:16.613Z,9.27
2019-06-27T09:59:24.863Z,12.73
2019-06-27T10:02:41.891Z,12.70
2019-06-27T10:05:42.759Z,10.37
2019-06-27T10:08:50.669Z,12.00
2019-06-27T10:11:58.525Z,11.40
2019-06-27T10:15:07.044Z,10.83
2019-06-27T10:18:15.113Z,9.97
2019-06-27T10:21:22.828Z,13.43
2019-06-27T10:24:30.989Z,22.90
2019-06-27T10:27:38.845Z,10.33
2019-06-27T10:30:49.362Z,12.57
2019-06-27T10:33:57.422Z,12.67
2019-06-27T10:37:05.596Z,11.60
2019-06-27T10:40:15.278Z,12.83
2019-06-27T10:43:23.350Z,10.63
2019-06-27T10:46:31.106Z,15.57
2019-06-27T10:49:38.881Z,10.50
2019-06-27T10:52:47.065Z,10.70
2019-06-27T10:55:55.343Z,8.87
2019-06-27T10:59:03.243Z,9.70
2019-06-27T11:02:11.045Z,18.00
2019-06-27T11:05:18.955Z,11.13
2019-06-27T11:08:33.787Z,10.40
2019-06-27T11:11:41.451Z,12.27
2019-06-27T11:14:59.358Z,10.27
2019-06-27T11:17:59.638Z,11.90
2019-06-27T11:21:07.498Z,11.53
2019-06-27T11:24:15.354Z,9.37
2019-06-27T11:27:27.174Z,10.90
2019-06-27T11:30:33.221Z,9.67
2019-06-27T11:33:40.987Z,12.93
2019-06-27T11:36:48.758Z,8.47
2019-06-27T11:39:56.477Z,9.83
2019-06-27T11:43:04.824Z,12.33
2019-06-27T11:46:12.636Z,16.00
2019-06-27T11:49:20.534Z,15.17
2019-06-27T11:52:28.787Z,12.10
2019-06-27T11:55:37.669Z,11.40
2019-06-27T11:58:45.379Z,10.70
2019-06-27T12:01:53.714Z,13.50
2019-06-27T12:05:02.714Z,14.73
2019-06-27T12:08:11.144Z,11.53
2019-06-27T12:11:19.537Z,10.50
2019-06-27T12:14:28.076Z,8.47
2019-06-27T12:17:36.179Z,12.13
2019-06-27T12:20:45.484Z,15.37
2019-06-27T12:23:55.205Z,9.43
2019-06-27T12:27:11.704Z,11.60
2019-06-27T12:30:20.226Z,12.53
2019-06-27T12:33:28.197Z,11.93
2019-06-27T12:36:35.943Z,11.40
2019-06-27T12:39:43.797Z,11.10
2019-06-27T12:42:52.187Z,10.47
2019-06-27T12:46:00.011Z,11.70
2019-06-27T12:49:08.096Z,15.83
2019-06-27T12:52:15.846Z,12.30
2019-06-27T12:55:24.012Z,10.20
2019-06-27T12:58:33.732Z,9.20
2019-06-27T13:01:41.754Z,10.43
2019-06-27T13:04:49.778Z,16.57
2019-06-27T13:07:58.487Z,15.27
2019-06-27T13:11:06.809Z,16.37
2019-06-27T13:14:14.857Z,12.40
2019-06-27T13:17:22.730Z,10.47
2019-06-27T13:20:31.725Z,12.17
2019-06-27T13:23:39.715Z,15.07
2019-06-27T13:26:47.567Z,12.23
2019-06-27T13:29:55.618Z,15.87
2019-06-27T13:33:04.678Z,11.13
2019-06-27T13:36:12.366Z,15.00
2019-06-27T13:39:20.767Z,9.27
2019-06-27T13:42:29.728Z,8.97
2019-06-27T13:45:38.888Z,12.33
2019-06-27T13:48:46.804Z,10.03
2019-06-27T13:51:54.756Z,12.87
2019-06-27T13:55:02.721Z,12.03
2019-06-27T13:58:11.151Z,12.57
2019-06-27T14:01:19.044Z,9.93
2019-06-27T14:04:27.213Z,14.97
2019-06-27T14:07:35.892Z,13.37
2019-06-27T14:10:43.721Z,11.27
2019-06-27T14:13:53.279Z,13.43
2019-06-27T14:17:01.209Z,21.17
2019-06-27T14:20:09.810Z,15.27
2019-06-27T14:23:17.589Z,18.77
2019-06-27T14:26:26.709Z,15.37
2019-06-27T14:29:34.514Z,11.17
2019-06-27T14:32:42.318Z,14.17
2019-06-27T14:35:50.509Z,15.33
2019-06-27T14:38:58.720Z,9.77
2019-06-27T14:42:06.728Z,11.33
2019-06-27T14:45:14.843Z,13.27
2019-06-27T14:48:22.874Z,14.17
2019-06-27T14:51:31.131Z,10.20
2019-06-27T14:54:38.977Z,10.93
2019-06-27T14:57:47.443Z,12.23
2019-06-27T15:00:55.761Z,14.93
2019-06-27T15:04:03.545Z,11.53
2019-06-27T15:07:11.442Z,29.40
2019-06-27T15:10:19.583Z,11.97
2019-06-27T15:13:27.518Z,13.33
2019-06-27T15:16:35.347Z,9.23
2019-06-27T15:19:44.287Z,12.67
2019-06-27T15:22:52.930Z,10.07
2019-06-27T15:26:00.827Z,10.57
2019-06-27T15:29:08.782Z,9.33
2019-06-27T15:32:17.059Z,14.10
2019-06-27T15:35:24.942Z,10.20
2019-06-27T15:38:33.193Z,9.47
2019-06-27T15:41:41.086Z,12.80
2019-06-27T15:44:49.328Z,12.50
2019-06-27T15:47:57.293Z,10.97
2019-06-27T15:51:05.233Z,11.83
2019-06-27T15:54:13.196Z,10.53
2019-06-27T15:57:21.473Z,13.60
2019-06-27T16:00:29.374Z,10.27
2019-06-27T16:03:37.416Z,13.57
2019-06-27T16:06:45.494Z,11.07
2019-06-27T16:09:53.372Z,14.23
2019-06-27T16:13:02.829Z,11.20
2019-06-27T16:16:12.118Z,13.37
2019-06-27T16:19:21.562Z,10.00
2019-06-27T16:22:29.628Z,9.70
2019-06-27T16:25:37.878Z,12.50
2019-06-27T16:28:46.528Z,9.07
2019-06-27T16:31:54.499Z,8.67
2019-06-27T16:35:04.171Z,13.23
2019-06-27T16:38:12.235Z,12.93
2019-06-27T16:41:20.778Z,8.70
2019-06-27T16:44:28.566Z,15.23
2019-06-27T16:47:36.453Z,9.13
2019-06-27T16:50:44.812Z,12.90
2019-06-27T16:53:52.728Z,14.97
2019-06-27T16:57:00.573Z,9.13
2019-06-27T17:00:09.227Z,10.13
2019-06-27T17:03:20.785Z,9.73
2019-06-27T17:06:41.605Z,16.30
2019-06-27T17:09:38.238Z,8.80
2019-06-27T17:12:46.231Z,11.03
2019-06-27T17:15:54.236Z,7.10
2019-06-27T17:19:02.025Z,9.70
2019-06-27T17:22:10.880Z,9.30
2019-06-27T17:25:18.918Z,10.03
2019-06-27T17:28:26.831Z,13.77
2019-06-27T17:31:34.831Z,11.93
2019-06-27T17:34:42.530Z,7.60
2019-06-27T17:37:50.402Z,11.57
2019-06-27T17:40:58.367Z,12.27
2019-06-27T17:44:06.528Z,8.63
2019-06-27T17:47:14.512Z,7.93
2019-06-27T17:50:22.448Z,13.60
2019-06-27T17:53:30.429Z,8.57
2019-06-27T17:56:38.381Z,7.80
2019-06-27T17:59:47.102Z,6.10
2019-06-27T18:02:54.922Z,3.70
2019-06-27T18:06:03.180Z,6.83
2019-06-27T18:09:11.295Z,3.23
2019-06-27T18:12:19.493Z,3.50
2019-06-27T18:15:28.551Z,4.87
2019-06-27T18:18:36.937Z,3.27
2019-06-27T18:21:45.100Z,2.40
2019-06-27T18:24:53.727Z,4.47
2019-06-27T18:28:02.724Z,2.40
2019-06-27T18:31:10.935Z,2.33
2019-06-27T18:34:18.740Z,2.77
2019-06-27T18:37:30.056Z,2.00
2019-06-27T18:40:37.124Z,1.93
2019-06-27T18:43:44.918Z,2.40
2019-06-27T18:46:52.842Z,3.23
2019-06-27T18:50:07.098Z,2.07
2019-06-27T18:53:15.008Z,1.77
2019-06-27T18:56:23.035Z,1.70
2019-06-27T18:59:32.046Z,3.03
2019-06-27T19:02:40.057Z,3.93
2019-06-27T19:05:47.852Z,3.10
2019-06-27T19:08:56.092Z,2.53
2019-06-27T19:12:03.957Z,2.00
2019-06-27T19:15:12.332Z,2.53
2019-06-27T19:18:38.519Z,1.47
2019-06-27T19:22:23.668Z,2.77
2019-06-27T19:25:34.811Z,1.40
2019-06-27T19:28:42.960Z,2.30
2019-06-27T19:31:50.901Z,2.90
2019-06-27T19:34:59.141Z,2.57
2019-06-27T19:38:07.300Z,2.00
2019-06-27T19:41:15.886Z,3.47
2019-06-27T19:44:23.728Z,2.43
2019-06-27T19:47:32.838Z,1.60
2019-06-27T19:50:41.035Z,5.13
2019-06-27T19:53:48.950Z,1.30
2019-06-27T19:56:57.180Z,4.97
2019-06-27T20:00:05.548Z,3.33
2019-06-27T20:03:13.564Z,3.17
2019-06-27T20:06:21.650Z,2.60
2019-06-27T20:09:29.732Z,1.30
2019-06-27T20:12:37.717Z,6.00
2019-06-27T20:15:45.727Z,1.23
2019-06-27T20:18:54.266Z,1.73
2019-06-27T20:22:02.570Z,4.20
2019-06-27T20:25:10.620Z,1.23
2019-06-27T20:28:18.834Z,2.37
2019-06-27T20:31:26.705Z,1.73
2019-06-27T20:34:34.591Z,4.83
2019-06-27T20:38:34.360Z,1.83
2019-06-27T20:41:55.821Z,1.60
2019-06-27T20:45:13.915Z,1.53
2019-06-27T20:48:35.234Z,3.43
2019-06-27T20:52:00.812Z,3.37
2019-06-27T20:55:11.511Z,1.67
2019-06-27T20:58:19.320Z,2.27
2019-06-27T21:01:27.147Z,1.70
2019-06-27T21:04:34.907Z,2.70
2019-06-27T21:07:42.592Z,1.93
2019-06-27T21:10:50.368Z,1.77
2019-06-27T21:13:58.265Z,3.00
2019-06-27T21:17:08.984Z,2.57
2019-06-27T21:20:17.659Z,1.90
2019-06-27T21:23:25.527Z,5.10
2019-06-27T21:26:33.460Z,1.83
2019-06-27T21:29:41.186Z,4.10
2019-06-27T21:32:48.922Z,1.70
2019-06-27T21:35:56.723Z,2.90
2019-06-27T21:39:07.846Z,1.60
2019-06-27T21:42:15.483Z,4.53
2019-06-27T21:45:23.356Z,2.77
2019-06-27T21:48:31.010Z,1.80
2019-06-27T21:51:39.216Z,1.97
2019-06-27T21:54:46.942Z,3.63
2019-06-27T21:57:55.059Z,1.87
2019-06-27T22:01:02.861Z,3.70
2019-06-27T22:04:10.992Z,2.90
2019-06-27T22:07:18.787Z,2.57
2019-06-27T22:10:26.523Z,1.50
2019-06-27T22:13:34.333Z,1.87
2019-06-27T22:16:42.516Z,1.50
2019-06-27T22:19:50.244Z,7.93
2019-06-27T22:22:59.126Z,1.60
2019-06-27T22:26:07.211Z,2.70
2019-06-27T22:29:15.208Z,2.67
2019-06-27T22:32:23.011Z,2.13
2019-06-27T22:35:30.887Z,1.60
2019-06-27T22:38:56.351Z,1.60
2019-06-27T22:42:22.034Z,3.83
2019-06-27T22:45:47.857Z,1.87
2019-06-27T22:48:54.735Z,1.70
2019-06-27T22:52:20.220Z,2.30
2019-06-27T22:55:28.362Z,1.77
2019-06-27T22:58:36.113Z,1.80
2019-06-27T23:01:43.841Z,4.03
2019-06-27T23:04:51.684Z,1.90
2019-06-27T23:07:59.370Z,1.67
2019-06-27T23:11:07.117Z,1.80
2019-06-27T23:14:14.784Z,2.17
2019-06-27T23:17:22.454Z,3.07
2019-06-27T23:20:31.181Z,1.80
2019-06-27T23:23:39.280Z,2.03
2019-06-27T23:26:47.314Z,2.87
2019-06-27T23:29:54.976Z,1.70
2019-06-27T23:33:02.713Z,1.50
2019-06-27T23:36:10.448Z,2.00
2019-06-27T23:39:18.194Z,2.17
2019-06-27T23:42:25.841Z,1.63
2019-06-27T23:45:33.778Z,5.20
2019-06-27T23:48:41.506Z,4.37
2019-06-27T23:51:49.233Z,3.30
2019-06-27T23:54:56.998Z,2.10
2019-06-27T23:58:04.955Z,5.10
